Rochester, New Hampshire
Current Conditions -  °F | °C
As of 1:51 AM on Saturday 25 Oct 2014 (Local Time) from KDAW Reporting Station
Overcast Overcast  
Wind Chill: 46°   Ceiling: 8000
Heat Index: 46°   Visibility: 10mi
Dew Point: 42°   Wind: 3mph
Humidity: 86%   Direction: NA
Pressure: 29.72"   Gusts: NA
Location:  43.31°N, 70.98°W
Report Text: KDAW 250551Z AUTO VRB03KT 10SM OVC080 08/06 A2972 RMK AO2 SLP063 T00780056 10094 20067 50000
Loading
Personal Weather Stations






























Interactive Weather Map New forecast layout! Learn more

10-Day Weather Forecast

Advertisements
Track Severe Weather on mobile